sensor_id;sensor_type;location;lat;lon;timestamp;noise_LAeq;noise_LA_min;noise_LA_max;noise_LA01;noise_LA95
45651;Laerm;31365;48.858;8.530;2023-05-23T00:59:44;50.85;29.92;74.71;;
45651;Laerm;31365;48.858;8.530;2023-05-23T01:02:13;49.13;32.93;69.38;;
45651;Laerm;31365;48.858;8.530;2023-05-23T01:04:43;42.56;31.68;60.29;;
45651;Laerm;31365;48.858;8.530;2023-05-23T01:07:11;38.50;31.68;42.65;;
45651;Laerm;31365;48.858;8.530;2023-05-23T01:09:40;38.75;32.35;42.29;;
45651;Laerm;31365;48.858;8.530;2023-05-23T01:12:19;40.49;35.04;43.63;;
45651;Laerm;31365;48.858;8.530;2023-05-23T01:15:03;38.84;33.44;43.86;;
45651;Laerm;31365;48.858;8.530;2023-05-23T01:17:44;40.36;32.93;43.99;;
45651;Laerm;31365;48.858;8.530;2023-05-23T01:20:21;39.14;32.35;43.39;;
45651;Laerm;31365;48.858;8.530;2023-05-23T01:23:34;38.45;31.68;41.96;;
45651;Laerm;31365;48.858;8.530;2023-05-23T01:26:19;38.45;31.68;42.03;;
45651;Laerm;31365;48.858;8.530;2023-05-23T01:29:01;60.65;33.44;81.59;;
45651;Laerm;31365;48.858;8.530;2023-05-23T01:31:42;38.67;32.35;47.88;;
45651;Laerm;31365;48.858;8.530;2023-05-23T01:34:12;38.52;32.35;45.97;;
45651;Laerm;31365;48.858;8.530;2023-05-23T01:36:42;41.01;32.35;45.69;;
45651;Laerm;31365;48.858;8.530;2023-05-23T01:39:11;39.78;32.93;44.27;;
45651;Laerm;31365;48.858;8.530;2023-05-23T01:41:40;38.34;30.89;47.96;;
45651;Laerm;31365;48.858;8.530;2023-05-23T01:44:09;38.33;31.68;42.09;;
45651;Laerm;31365;48.858;8.530;2023-05-23T01:46:39;38.67;30.89;56.23;;
45651;Laerm;31365;48.858;8.530;2023-05-23T01:49:13;53.21;32.93;75.76;;
45651;Laerm;31365;48.858;8.530;2023-05-23T01:51:42;46.34;32.35;66.90;;
45651;Laerm;31365;48.858;8.530;2023-05-23T01:54:12;47.51;31.68;65.17;;
45651;Laerm;31365;48.858;8.530;2023-05-23T01:56:43;47.18;31.68;66.47;;
45651;Laerm;31365;48.858;8.530;2023-05-23T01:59:13;55.44;29.57;77.70;;
45651;Laerm;31365;48.858;8.530;2023-05-23T02:01:42;44.03;32.93;62.59;;
45651;Laerm;31365;48.858;8.530;2023-05-23T02:04:12;44.98;31.68;62.83;;
45651;Laerm;31365;48.858;8.530;2023-05-23T02:06:41;44.96;29.92;62.90;;
45651;Laerm;31365;48.858;8.530;2023-05-23T02:09:12;61.28;32.35;80.68;;
45651;Laerm;31365;48.858;8.530;2023-05-23T02:11:41;44.79;30.89;62.24;;
45651;Laerm;31365;48.858;8.530;2023-05-23T02:14:10;53.44;33.44;72.32;;
45651;Laerm;31365;48.858;8.530;2023-05-23T02:16:40;56.79;35.94;76.24;;
45651;Laerm;31365;48.858;8.530;2023-05-23T02:19:08;56.08;31.68;76.64;;
45651;Laerm;31365;48.858;8.530;2023-05-23T02:21:38;57.67;34.34;75.91;;
45651;Laerm;31365;48.858;8.530;2023-05-23T02:24:06;56.02;30.89;72.73;;
45651;Laerm;31365;48.858;8.530;2023-05-23T02:26:36;42.83;33.90;62.28;;
45651;Laerm;31365;48.858;8.530;2023-05-23T02:29:04;47.24;31.68;64.53;;
45651;Laerm;31365;48.858;8.530;2023-05-23T02:31:33;47.85;31.68;63.98;;
45651;Laerm;31365;48.858;8.530;2023-05-23T02:34:02;54.93;32.35;76.92;;
45651;Laerm;31365;48.858;8.530;2023-05-23T02:36:31;52.69;33.90;72.01;;
45651;Laerm;31365;48.858;8.530;2023-05-23T02:38:59;54.52;34.31;74.20;;
45651;Laerm;31365;48.858;8.530;2023-05-23T02:41:27;55.66;33.90;77.19;;
45651;Laerm;31365;48.858;8.530;2023-05-23T02:43:57;61.61;35.94;82.34;;
45651;Laerm;31365;48.858;8.530;2023-05-23T02:46:25;53.11;34.31;72.09;;
45651;Laerm;31365;48.858;8.530;2023-05-23T02:48:54;62.82;34.69;85.69;;
45651;Laerm;31365;48.858;8.530;2023-05-23T02:51:23;47.31;32.93;65.72;;
45651;Laerm;31365;48.858;8.530;2023-05-23T02:53:52;53.34;33.90;70.91;;
45651;Laerm;31365;48.858;8.530;2023-05-23T02:56:20;60.92;36.20;81.44;;
45651;Laerm;31365;48.858;8.530;2023-05-23T02:58:49;57.50;35.94;79.18;;
45651;Laerm;31365;48.858;8.530;2023-05-23T03:01:18;52.77;35.94;70.33;;
45651;Laerm;31365;48.858;8.530;2023-05-23T03:03:47;52.18;36.69;70.59;;
45651;Laerm;31365;48.858;8.530;2023-05-23T03:06:15;59.27;35.94;79.03;;
45651;Laerm;31365;48.858;8.530;2023-05-23T03:08:45;60.50;35.94;80.10;;
45651;Laerm;31365;48.858;8.530;2023-05-23T03:11:13;56.39;34.69;77.55;;
45651;Laerm;31365;48.858;8.530;2023-05-23T03:13:43;56.34;37.32;77.17;;
45651;Laerm;31365;48.858;8.530;2023-05-23T03:16:12;61.17;37.70;79.13;;
45651;Laerm;31365;48.858;8.530;2023-05-23T03:18:40;58.67;37.12;73.47;;
45651;Laerm;31365;48.858;8.530;2023-05-23T03:21:08;55.24;37.32;73.47;;
45651;Laerm;31365;48.858;8.530;2023-05-23T03:23:37;57.64;37.32;77.74;;
45651;Laerm;31365;48.858;8.530;2023-05-23T03:26:07;61.53;38.52;78.76;;
45651;Laerm;31365;48.858;8.530;2023-05-23T03:28:35;53.85;35.94;73.98;;
45651;Laerm;31365;48.858;8.530;2023-05-23T03:31:04;57.39;38.67;74.82;;
45651;Laerm;31365;48.858;8.530;2023-05-23T03:33:32;66.06;36.91;82.07;;
45651;Laerm;31365;48.858;8.530;2023-05-23T03:36:04;62.08;37.88;82.99;;
45651;Laerm;31365;48.858;8.530;2023-05-23T03:38:33;58.71;35.36;76.79;;
45651;Laerm;31365;48.858;8.530;2023-05-23T03:41:02;64.69;37.88;80.42;;
45651;Laerm;31365;48.858;8.530;2023-05-23T03:43:31;61.40;38.67;77.01;;
45651;Laerm;31365;48.858;8.530;2023-05-23T03:46:00;57.52;36.91;73.23;;
45651;Laerm;31365;48.858;8.530;2023-05-23T03:48:29;61.13;39.92;74.88;;
45651;Laerm;31365;48.858;8.530;2023-05-23T03:50:57;61.37;41.68;78.32;;
45651;Laerm;31365;48.858;8.530;2023-05-23T03:53:26;61.95;37.88;78.31;;
45651;Laerm;31365;48.858;8.530;2023-05-23T03:55:55;61.52;37.88;78.58;;
45651;Laerm;31365;48.858;8.530;2023-05-23T03:58:23;62.12;37.88;81.68;;
45651;Laerm;31365;48.858;8.530;2023-05-23T04:00:58;60.71;37.70;76.99;;
45651;Laerm;31365;48.858;8.530;2023-05-23T04:03:29;60.51;36.20;77.31;;
45651;Laerm;31365;48.858;8.530;2023-05-23T04:06:01;61.96;38.95;76.61;;
45651;Laerm;31365;48.858;8.530;2023-05-23T04:08:30;61.42;39.21;76.41;;
45651;Laerm;31365;48.858;8.530;2023-05-23T04:11:00;62.17;40.13;77.32;;
45651;Laerm;31365;48.858;8.530;2023-05-23T04:13:33;63.16;37.52;83.86;;
45651;Laerm;31365;48.858;8.530;2023-05-23T04:16:03;62.88;40.23;77.03;;
45651;Laerm;31365;48.858;8.530;2023-05-23T04:18:32;62.42;38.37;78.88;;
45651;Laerm;31365;48.858;8.530;2023-05-23T04:21:02;63.13;41.55;76.93;;
45651;Laerm;31365;48.858;8.530;2023-05-23T04:23:33;63.15;37.52;79.88;;
45651;Laerm;31365;48.858;8.530;2023-05-23T04:26:01;64.15;40.98;77.10;;
45651;Laerm;31365;48.858;8.530;2023-05-23T04:28:34;59.84;41.14;77.67;;
45651;Laerm;31365;48.858;8.530;2023-05-23T04:31:04;65.03;42.09;78.95;;
45651;Laerm;31365;48.858;8.530;2023-05-23T04:33:35;65.08;40.98;79.66;;
45651;Laerm;31365;48.858;8.530;2023-05-23T04:36:05;64.07;40.33;78.74;;
45651;Laerm;31365;48.858;8.530;2023-05-23T04:41:08;64.86;42.29;78.09;;
45651;Laerm;31365;48.858;8.530;2023-05-23T04:44:09;64.75;44.47;78.96;;
45651;Laerm;31365;48.858;8.530;2023-05-23T04:47:07;64.07;40.62;78.97;;
45651;Laerm;31365;48.858;8.530;2023-05-23T04:50:12;65.76;45.17;80.01;;
45651;Laerm;31365;48.858;8.530;2023-05-23T04:52:41;65.75;41.96;80.00;;
45651;Laerm;31365;48.858;8.530;2023-05-23T04:55:10;65.75;41.96;80.00;;
45651;Laerm;31365;48.858;8.530;2023-05-23T04:57:38;68.44;45.07;86.69;;
45651;Laerm;31365;48.858;8.530;2023-05-23T05:00:07;64.55;41.38;77.61;;
45651;Laerm;31365;48.858;8.530;2023-05-23T05:02:38;66.14;42.03;82.30;;
45651;Laerm;31365;48.858;8.530;2023-05-23T05:05:08;65.13;41.82;79.90;;
45651;Laerm;31365;48.858;8.530;2023-05-23T05:07:36;63.30;42.41;78.47;;
45651;Laerm;31365;48.858;8.530;2023-05-23T05:10:07;64.50;51.37;77.69;;
45651;Laerm;31365;48.858;8.530;2023-05-23T05:12:43;64.49;51.20;77.55;;
45651;Laerm;31365;48.858;8.530;2023-05-23T05:15:12;65.46;51.15;79.67;;
45651;Laerm;31365;48.858;8.530;2023-05-23T05:17:45;65.70;50.97;80.50;;
45651;Laerm;31365;48.858;8.530;2023-05-23T05:20:17;68.19;51.86;85.93;;
45651;Laerm;31365;48.858;8.530;2023-05-23T05:22:45;67.80;43.90;82.33;;
45651;Laerm;31365;48.858;8.530;2023-05-23T05:25:14;64.22;46.20;79.93;;
45651;Laerm;31365;48.858;8.530;2023-05-23T05:27:42;69.43;44.80;89.36;;
45651;Laerm;31365;48.858;8.530;2023-05-23T05:30:14;64.78;43.14;81.96;;
45651;Laerm;31365;48.858;8.530;2023-05-23T05:32:50;64.83;43.58;78.04;;
45651;Laerm;31365;48.858;8.530;2023-05-23T05:35:18;65.99;43.81;82.25;;
45651;Laerm;31365;48.858;8.530;2023-05-23T05:37:47;65.24;45.75;79.18;;
45651;Laerm;31365;48.858;8.530;2023-05-23T05:40:15;64.28;45.11;80.06;;
45651;Laerm;31365;48.858;8.530;2023-05-23T05:42:44;63.83;44.27;77.13;;
45651;Laerm;31365;48.858;8.530;2023-05-23T05:45:12;65.52;48.70;82.87;;
45651;Laerm;31365;48.858;8.530;2023-05-23T05:47:41;62.82;42.53;78.92;;
45651;Laerm;31365;48.858;8.530;2023-05-23T05:50:11;65.05;42.71;79.16;;
45651;Laerm;31365;48.858;8.530;2023-05-23T05:52:40;65.76;45.14;80.58;;
45651;Laerm;31365;48.858;8.530;2023-05-23T05:55:10;65.45;43.54;78.53;;
45651;Laerm;31365;48.858;8.530;2023-05-23T05:57:43;63.61;43.14;77.71;;
45651;Laerm;31365;48.858;8.530;2023-05-23T06:00:13;64.23;42.98;76.73;;
45651;Laerm;31365;48.858;8.530;2023-05-23T06:02:45;66.27;43.63;82.09;;
45651;Laerm;31365;48.858;8.530;2023-05-23T06:05:21;66.61;43.81;85.60;;
45651;Laerm;31365;48.858;8.530;2023-05-23T06:07:49;63.70;42.93;76.84;;
45651;Laerm;31365;48.858;8.530;2023-05-23T06:10:18;65.66;42.09;81.65;;
45651;Laerm;31365;48.858;8.530;2023-05-23T06:12:47;62.44;42.29;75.90;;
45651;Laerm;31365;48.858;8.530;2023-05-23T06:15:15;64.16;42.82;79.68;;
45651;Laerm;31365;48.858;8.530;2023-05-23T06:17:44;66.18;45.72;81.56;;
45651;Laerm;31365;48.858;8.530;2023-05-23T06:20:13;64.14;40.80;77.25;;
45651;Laerm;31365;48.858;8.530;2023-05-23T06:22:45;64.25;42.03;80.30;;
45651;Laerm;31365;48.858;8.530;2023-05-23T06:25:13;64.24;41.53;81.60;;
45651;Laerm;31365;48.858;8.530;2023-05-23T06:27:42;68.55;41.46;86.42;;
45651;Laerm;31365;48.858;8.530;2023-05-23T06:30:12;65.65;45.51;79.53;;
45651;Laerm;31365;48.858;8.530;2023-05-23T06:32:40;61.94;44.54;75.11;;
45651;Laerm;31365;48.858;8.530;2023-05-23T06:35:09;72.21;51.96;87.95;;
45651;Laerm;31365;48.858;8.530;2023-05-23T06:37:37;63.91;49.45;77.72;;
45651;Laerm;31365;48.858;8.530;2023-05-23T06:40:11;63.24;45.77;79.09;;
45651;Laerm;31365;48.858;8.530;2023-05-23T06:42:40;66.33;46.18;89.71;;
45651;Laerm;31365;48.858;8.530;2023-05-23T06:45:17;64.48;46.07;83.48;;
45651;Laerm;31365;48.858;8.530;2023-05-23T06:47:45;67.16;44.07;82.21;;
45651;Laerm;31365;48.858;8.530;2023-05-23T08:13:39;63.55;41.53;77.85;;
45651;Laerm;31365;48.858;8.530;2023-05-23T09:29:07;62.46;42.09;76.72;;
45651;Laerm;31365;48.858;8.530;2023-05-23T09:31:35;64.14;43.24;82.14;;
45651;Laerm;31365;48.858;8.530;2023-05-23T09:34:03;68.80;43.14;89.44;;
45651;Laerm;31365;48.858;8.530;2023-05-23T09:36:32;61.86;43.24;75.50;;
45651;Laerm;31365;48.858;8.530;2023-05-23T09:39:03;63.46;43.72;83.81;;
45651;Laerm;31365;48.858;8.530;2023-05-23T09:41:33;62.30;42.53;75.22;;
45651;Laerm;31365;48.858;8.530;2023-05-23T09:44:07;62.08;42.03;75.53;;
45651;Laerm;31365;48.858;8.530;2023-05-23T09:46:36;63.56;43.58;78.54;;
45651;Laerm;31365;48.858;8.530;2023-05-23T09:49:15;63.26;42.35;80.03;;
45651;Laerm;31365;48.858;8.530;2023-05-23T09:51:57;62.60;42.59;77.08;;
45651;Laerm;31365;48.858;8.530;2023-05-23T09:54:25;65.34;41.75;80.95;;
45651;Laerm;31365;48.858;8.530;2023-05-23T09:56:54;62.48;44.31;76.78;;
45651;Laerm;31365;48.858;8.530;2023-05-23T09:59:33;68.41;44.39;86.00;;
45651;Laerm;31365;48.858;8.530;2023-05-23T10:02:05;60.14;43.63;75.61;;
45651;Laerm;31365;48.858;8.530;2023-05-23T10:04:38;63.31;42.29;78.32;;
45651;Laerm;31365;48.858;8.530;2023-05-23T10:07:13;63.25;42.65;80.97;;
45651;Laerm;31365;48.858;8.530;2023-05-23T10:09:47;63.34;42.93;80.75;;
45651;Laerm;31365;48.858;8.530;2023-05-23T10:12:46;61.46;41.75;76.84;;
45651;Laerm;31365;48.858;8.530;2023-05-23T10:15:19;64.16;42.53;83.14;;
45651;Laerm;31365;48.858;8.530;2023-05-23T10:18:00;62.64;38.81;82.42;;
45651;Laerm;31365;48.858;8.530;2023-05-23T10:20:31;62.32;42.29;77.97;;
45651;Laerm;31365;48.858;8.530;2023-05-23T10:23:01;64.82;39.81;84.08;;
45651;Laerm;31365;48.858;8.530;2023-05-23T10:25:31;62.42;42.47;75.17;;
45651;Laerm;31365;48.858;8.530;2023-05-23T10:28:04;62.47;42.64;82.75;;
45651;Laerm;31365;48.858;8.530;2023-05-23T10:30:34;64.09;41.68;80.22;;
45651;Laerm;31365;48.858;8.530;2023-05-23T10:33:03;64.62;40.62;80.27;;
45651;Laerm;31365;48.858;8.530;2023-05-23T10:35:46;61.87;39.81;75.29;;
45651;Laerm;31365;48.858;8.530;2023-05-23T10:38:35;62.79;44.12;80.35;;
45651;Laerm;31365;48.858;8.530;2023-05-23T10:41:10;65.74;42.16;82.43;;
45651;Laerm;31365;48.858;8.530;2023-05-23T10:43:47;64.54;43.19;76.52;;
45651;Laerm;31365;48.858;8.530;2023-05-23T10:46:19;61.36;39.58;77.86;;
45651;Laerm;31365;48.858;8.530;2023-05-23T10:48:54;60.86;41.96;73.70;;
45651;Laerm;31365;48.858;8.530;2023-05-23T10:51:24;62.29;41.46;76.58;;
45651;Laerm;31365;48.858;8.530;2023-05-23T10:53:53;61.46;41.61;75.85;;
45651;Laerm;31365;48.858;8.530;2023-05-23T10:56:23;62.59;39.46;76.14;;
45651;Laerm;31365;48.858;8.530;2023-05-23T10:58:52;64.04;41.53;79.47;;
45651;Laerm;31365;48.858;8.530;2023-05-23T11:01:26;60.82;40.62;75.47;;
45651;Laerm;31365;48.858;8.530;2023-05-23T11:04:04;67.06;39.81;87.82;;
45651;Laerm;31365;48.858;8.530;2023-05-23T11:06:39;54.34;36.91;70.55;;
45651;Laerm;31365;48.858;8.530;2023-05-23T11:09:11;64.34;40.62;81.44;;
45651;Laerm;31365;48.858;8.530;2023-05-23T11:11:54;65.41;40.03;82.69;;
45651;Laerm;31365;48.858;8.530;2023-05-23T11:14:34;63.46;42.93;75.27;;
45651;Laerm;31365;48.858;8.530;2023-05-23T11:17:49;64.34;41.30;83.21;;
45651;Laerm;31365;48.858;8.530;2023-05-23T11:20:19;63.86;41.30;79.62;;
45651;Laerm;31365;48.858;8.530;2023-05-23T11:22:53;62.62;39.46;75.46;;
45651;Laerm;31365;48.858;8.530;2023-05-23T11:25:39;65.75;39.08;88.78;;
45651;Laerm;31365;48.858;8.530;2023-05-23T11:28:10;64.42;42.59;83.28;;
45651;Laerm;31365;48.858;8.530;2023-05-23T11:30:39;63.78;42.16;78.35;;
45651;Laerm;31365;48.858;8.530;2023-05-23T11:33:11;62.80;41.68;77.41;;
45651;Laerm;31365;48.858;8.530;2023-05-23T11:35:41;63.19;41.06;74.47;;
45651;Laerm;31365;48.858;8.530;2023-05-23T11:38:10;60.78;42.16;75.28;;
45651;Laerm;31365;48.858;8.530;2023-05-23T11:40:40;62.02;41.38;78.52;;
45651;Laerm;31365;48.858;8.530;2023-05-23T11:43:13;65.14;41.46;83.93;;
45651;Laerm;31365;48.858;8.530;2023-05-23T11:45:42;65.20;41.89;84.33;;
45651;Laerm;31365;48.858;8.530;2023-05-23T11:48:15;65.15;39.21;82.62;;
45651;Laerm;31365;48.858;8.530;2023-05-23T11:50:48;64.11;41.55;80.02;;
45651;Laerm;31365;48.858;8.530;2023-05-23T11:53:21;63.55;41.53;77.54;;
45651;Laerm;31365;48.858;8.530;2023-05-23T11:55:54;61.56;40.80;73.07;;
45651;Laerm;31365;48.858;8.530;2023-05-23T11:58:27;63.91;40.80;77.42;;
45651;Laerm;31365;48.858;8.530;2023-05-23T12:00:59;65.00;42.29;80.33;;
45651;Laerm;31365;48.858;8.530;2023-05-23T12:03:29;61.95;40.62;77.33;;
45651;Laerm;31365;48.858;8.530;2023-05-23T12:29:11;63.42;40.62;81.86;;
45651;Laerm;31365;48.858;8.530;2023-05-23T12:31:39;61.49;41.82;74.62;;
45651;Laerm;31365;48.858;8.530;2023-05-23T12:34:10;62.71;41.38;77.90;;
45651;Laerm;31365;48.858;8.530;2023-05-23T12:36:38;62.40;39.21;77.37;;
45651;Laerm;31365;48.858;8.530;2023-05-23T12:39:23;63.64;40.62;77.97;;
45651;Laerm;31365;48.858;8.530;2023-05-23T12:41:53;63.73;42.03;78.32;;
45651;Laerm;31365;48.858;8.530;2023-05-23T12:44:29;63.71;43.54;76.81;;
45651;Laerm;31365;48.858;8.530;2023-05-23T12:46:59;61.97;40.43;77.76;;
45651;Laerm;31365;48.858;8.530;2023-05-23T12:49:27;64.49;42.59;80.13;;
45651;Laerm;31365;48.858;8.530;2023-05-23T12:51:56;65.51;42.35;82.66;;
45651;Laerm;31365;48.858;8.530;2023-05-23T12:54:24;70.62;39.34;88.40;;
45651;Laerm;31365;48.858;8.530;2023-05-23T12:56:52;63.75;41.75;76.96;;
45651;Laerm;31365;48.858;8.530;2023-05-23T12:59:21;62.18;41.06;75.79;;
45651;Laerm;31365;48.858;8.530;2023-05-23T13:01:51;62.15;43.04;75.67;;
45651;Laerm;31365;48.858;8.530;2023-05-23T13:04:19;63.45;43.14;76.60;;
45651;Laerm;31365;48.858;8.530;2023-05-23T13:06:48;64.42;43.99;79.26;;
45651;Laerm;31365;48.858;8.530;2023-05-23T13:09:16;63.31;42.41;75.82;;
45651;Laerm;31365;48.858;8.530;2023-05-23T13:11:44;63.69;43.04;79.20;;
45651;Laerm;31365;48.858;8.530;2023-05-23T13:14:12;65.49;45.11;83.92;;
45651;Laerm;31365;48.858;8.530;2023-05-23T13:16:40;65.05;42.09;81.17;;
45651;Laerm;31365;48.858;8.530;2023-05-23T13:19:10;64.14;41.96;79.73;;
45651;Laerm;31365;48.858;8.530;2023-05-23T13:21:38;63.99;43.04;78.21;;
45651;Laerm;31365;48.858;8.530;2023-05-23T13:24:07;62.05;41.11;78.63;;
45651;Laerm;31365;48.858;8.530;2023-05-23T13:26:35;62.02;39.81;77.56;;
45651;Laerm;31365;48.858;8.530;2023-05-23T13:29:05;61.58;40.62;77.47;;
45651;Laerm;31365;48.858;8.530;2023-05-23T13:31:33;64.04;41.61;78.87;;
45651;Laerm;31365;48.858;8.530;2023-05-23T13:34:01;64.80;42.53;83.05;;
45651;Laerm;31365;48.858;8.530;2023-05-23T13:36:31;63.93;43.58;76.69;;
45651;Laerm;31365;48.858;8.530;2023-05-23T13:38:59;65.62;43.14;80.33;;
45651;Laerm;31365;48.858;8.530;2023-05-23T13:41:31;62.62;41.30;79.14;;
45651;Laerm;31365;48.858;8.530;2023-05-23T13:43:59;62.07;42.22;77.26;;
45651;Laerm;31365;48.858;8.530;2023-05-23T13:46:27;61.99;38.37;74.74;;
45651;Laerm;31365;48.858;8.530;2023-05-23T13:48:56;63.82;42.47;79.82;;
45651;Laerm;31365;48.858;8.530;2023-05-23T13:51:24;67.64;45.28;84.82;;
45651;Laerm;31365;48.858;8.530;2023-05-23T13:53:54;67.68;42.59;86.84;;
45651;Laerm;31365;48.858;8.530;2023-05-23T13:56:22;64.99;44.90;78.40;;
45651;Laerm;31365;48.858;8.530;2023-05-23T13:58:51;63.10;39.58;77.26;;
45651;Laerm;31365;48.858;8.530;2023-05-23T14:01:21;66.23;45.88;81.50;;
45651;Laerm;31365;48.858;8.530;2023-05-23T14:03:50;65.59;46.10;78.87;;
45651;Laerm;31365;48.858;8.530;2023-05-23T14:06:18;64.25;41.30;77.36;;
45651;Laerm;31365;48.858;8.530;2023-05-23T14:08:47;66.22;48.18;78.94;;
45651;Laerm;31365;48.858;8.530;2023-05-23T14:11:16;65.09;44.11;80.47;;
45651;Laerm;31365;48.858;8.530;2023-05-23T14:13:44;60.45;41.68;77.37;;
45651;Laerm;31365;48.858;8.530;2023-05-23T14:16:12;63.30;42.29;75.49;;
45651;Laerm;31365;48.858;8.530;2023-05-23T14:18:41;64.46;42.09;78.63;;
45651;Laerm;31365;48.858;8.530;2023-05-23T14:21:09;62.46;41.68;73.35;;
45651;Laerm;31365;48.858;8.530;2023-05-23T14:23:37;65.61;43.58;77.99;;
45651;Laerm;31365;48.858;8.530;2023-05-23T14:26:06;65.91;43.58;79.12;;
45651;Laerm;31365;48.858;8.530;2023-05-23T14:28:35;61.77;41.82;75.66;;
45651;Laerm;31365;48.858;8.530;2023-05-23T14:31:05;63.05;43.99;74.17;;
45651;Laerm;31365;48.858;8.530;2023-05-23T14:33:33;62.91;42.29;79.23;;
45651;Laerm;31365;48.858;8.530;2023-05-23T14:36:02;63.12;42.35;77.26;;
45651;Laerm;31365;48.858;8.530;2023-05-23T14:38:31;62.40;41.96;76.10;;
45651;Laerm;31365;48.858;8.530;2023-05-23T14:41:02;64.64;43.49;79.54;;
45651;Laerm;31365;48.858;8.530;2023-05-23T14:43:30;65.41;45.91;77.27;;
45651;Laerm;31365;48.858;8.530;2023-05-23T14:46:01;63.72;43.14;76.80;;
45651;Laerm;31365;48.858;8.530;2023-05-23T14:48:29;62.36;43.34;79.28;;
45651;Laerm;31365;48.858;8.530;2023-05-23T14:50:58;65.67;42.93;86.59;;
45651;Laerm;31365;48.858;8.530;2023-05-23T14:53:27;65.72;44.76;81.45;;
45651;Laerm;31365;48.858;8.530;2023-05-23T14:55:57;66.59;45.27;81.82;;
45651;Laerm;31365;48.858;8.530;2023-05-23T14:58:25;65.34;43.99;82.58;;
45651;Laerm;31365;48.858;8.530;2023-05-23T15:00:54;67.34;44.47;84.98;;
45651;Laerm;31365;48.858;8.530;2023-05-23T15:03:25;64.80;43.49;77.13;;
45651;Laerm;31365;48.858;8.530;2023-05-23T15:05:54;65.16;44.54;79.62;;
45651;Laerm;31365;48.858;8.530;2023-05-23T15:08:22;64.62;43.19;78.62;;
45651;Laerm;31365;48.858;8.530;2023-05-23T15:10:52;65.61;43.04;81.55;;
45651;Laerm;31365;48.858;8.530;2023-05-23T15:13:20;64.29;44.69;76.17;;
45651;Laerm;31365;48.858;8.530;2023-05-23T15:15:48;65.55;45.20;81.23;;
45651;Laerm;31365;48.858;8.530;2023-05-23T15:18:16;64.75;44.31;77.11;;
45651;Laerm;31365;48.858;8.530;2023-05-23T15:21:09;64.07;41.53;81.02;;
45651;Laerm;31365;48.858;8.530;2023-05-23T15:23:38;65.68;43.63;81.12;;
45651;Laerm;31365;48.858;8.530;2023-05-23T15:26:06;64.68;44.07;78.59;;
45651;Laerm;31365;48.858;8.530;2023-05-23T15:28:34;64.57;43.44;77.97;;
45651;Laerm;31365;48.858;8.530;2023-05-23T15:31:03;64.03;41.53;80.61;;
45651;Laerm;31365;48.858;8.530;2023-05-23T15:33:31;64.90;42.59;79.73;;
45651;Laerm;31365;48.858;8.530;2023-05-23T15:35:59;65.35;46.64;79.12;;
45651;Laerm;31365;48.858;8.530;2023-05-23T15:38:29;65.93;43.99;84.58;;
45651;Laerm;31365;48.858;8.530;2023-05-23T15:40:57;66.57;42.59;82.87;;
45651;Laerm;31365;48.858;8.530;2023-05-23T15:43:26;67.42;45.69;83.88;;
45651;Laerm;31365;48.858;8.530;2023-05-23T15:45:54;61.42;41.46;73.81;;
45651;Laerm;31365;48.858;8.530;2023-05-23T15:48:22;64.23;46.91;76.21;;
45651;Laerm;31365;48.858;8.530;2023-05-23T15:50:50;64.70;41.89;77.20;;
45651;Laerm;31365;48.858;8.530;2023-05-23T15:53:18;63.63;43.24;75.26;;
45651;Laerm;31365;48.858;8.530;2023-05-23T15:55:48;67.47;43.14;89.21;;
45651;Laerm;31365;48.858;8.530;2023-05-23T15:58:16;66.00;43.72;79.01;;
45651;Laerm;31365;48.858;8.530;2023-05-23T16:00:44;63.40;42.88;77.52;;
45651;Laerm;31365;48.858;8.530;2023-05-23T16:03:13;64.09;43.81;78.99;;
45651;Laerm;31365;48.858;8.530;2023-05-23T16:05:41;66.49;41.89;82.30;;
45651;Laerm;31365;48.858;8.530;2023-05-23T16:08:10;65.30;42.76;80.97;;
45651;Laerm;31365;48.858;8.530;2023-05-23T16:10:38;62.70;41.30;76.05;;
45651;Laerm;31365;48.858;8.530;2023-05-23T16:13:07;65.44;40.62;81.27;;
45651;Laerm;31365;48.858;8.530;2023-05-23T16:15:36;64.46;43.09;78.20;;
45651;Laerm;31365;48.858;8.530;2023-05-23T16:18:04;66.38;42.98;85.08;;
45651;Laerm;31365;48.858;8.530;2023-05-23T16:20:32;63.37;43.24;76.65;;
45651;Laerm;31365;48.858;8.530;2023-05-23T16:23:01;61.91;41.96;73.72;;
45651;Laerm;31365;48.858;8.530;2023-05-23T16:25:29;64.31;45.20;75.33;;
45651;Laerm;31365;48.858;8.530;2023-05-23T16:27:57;66.92;41.96;85.73;;
45651;Laerm;31365;48.858;8.530;2023-05-23T16:30:27;62.91;41.46;78.22;;
45651;Laerm;31365;48.858;8.530;2023-05-23T16:32:55;64.68;42.47;78.56;;
45651;Laerm;31365;48.858;8.530;2023-05-23T16:35:24;64.89;40.98;80.28;;
45651;Laerm;31365;48.858;8.530;2023-05-23T16:37:52;60.40;40.71;77.73;;
45651;Laerm;31365;48.858;8.530;2023-05-23T16:40:23;65.04;42.65;84.97;;
45651;Laerm;31365;48.858;8.530;2023-05-23T16:42:51;64.49;43.58;77.92;;
45651;Laerm;31365;48.858;8.530;2023-05-23T16:45:20;61.43;41.89;78.42;;
45651;Laerm;31365;48.858;8.530;2023-05-23T16:47:49;64.24;42.71;82.86;;
45651;Laerm;31365;48.858;8.530;2023-05-23T16:50:18;61.00;41.96;75.32;;
45651;Laerm;31365;48.858;8.530;2023-05-23T16:52:46;64.30;42.71;88.08;;
45651;Laerm;31365;48.858;8.530;2023-05-23T16:55:14;63.47;41.61;79.25;;
45651;Laerm;31365;48.858;8.530;2023-05-23T16:57:42;58.37;39.58;74.99;;
45651;Laerm;31365;48.858;8.530;2023-05-23T17:00:12;77.89;42.71;100.81;;
45651;Laerm;31365;48.858;8.530;2023-05-23T17:02:40;62.59;42.35;79.29;;
45651;Laerm;31365;48.858;8.530;2023-05-23T17:05:10;61.51;41.68;74.33;;
45651;Laerm;31365;48.858;8.530;2023-05-23T17:07:38;64.23;43.72;80.77;;
45651;Laerm;31365;48.858;8.530;2023-05-23T17:10:09;63.94;42.03;77.54;;
45651;Laerm;31365;48.858;8.530;2023-05-23T17:12:37;62.55;44.58;75.25;;
45651;Laerm;31365;48.858;8.530;2023-05-23T17:15:07;61.78;40.33;78.69;;
45651;Laerm;31365;48.858;8.530;2023-05-23T17:17:36;61.46;40.13;72.86;;
45651;Laerm;31365;48.858;8.530;2023-05-23T17:20:07;62.66;42.09;77.80;;
45651;Laerm;31365;48.858;8.530;2023-05-23T17:22:37;62.37;41.22;78.14;;
45651;Laerm;31365;48.858;8.530;2023-05-23T17:25:07;61.64;38.81;74.41;;
45651;Laerm;31365;48.858;8.530;2023-05-23T17:27:35;58.77;38.95;77.22;;
45651;Laerm;31365;48.858;8.530;2023-05-23T17:30:05;60.37;39.68;75.00;;
45651;Laerm;31365;48.858;8.530;2023-05-23T17:32:33;57.75;40.03;75.41;;
45651;Laerm;31365;48.858;8.530;2023-05-23T17:35:02;62.14;42.03;76.25;;
45651;Laerm;31365;48.858;8.530;2023-05-23T17:37:31;59.76;41.06;73.58;;
45651;Laerm;31365;48.858;8.530;2023-05-23T17:40:04;59.82;40.71;77.71;;
45651;Laerm;31365;48.858;8.530;2023-05-23T17:42:33;63.77;41.14;80.34;;
45651;Laerm;31365;48.858;8.530;2023-05-23T17:45:02;58.49;40.88;76.86;;
45651;Laerm;31365;48.858;8.530;2023-05-23T17:47:30;61.16;40.53;75.69;;
45651;Laerm;31365;48.858;8.530;2023-05-23T17:49:58;62.46;40.71;76.18;;
45651;Laerm;31365;48.858;8.530;2023-05-23T17:52:26;61.14;40.98;72.96;;
45651;Laerm;31365;48.858;8.530;2023-05-23T17:54:56;61.26;41.22;76.37;;
45651;Laerm;31365;48.858;8.530;2023-05-23T17:57:26;58.17;40.03;77.38;;
45651;Laerm;31365;48.858;8.530;2023-05-23T17:59:56;61.53;40.62;79.36;;
45651;Laerm;31365;48.858;8.530;2023-05-23T18:02:25;57.30;40.43;74.00;;
45651;Laerm;31365;48.858;8.530;2023-05-23T18:04:53;59.88;41.89;74.80;;